Time;durP1;ratioP1;P1;durP2;ratioP2;P2;SDS_P1;SDS_P2;PMS_P1;PMS_P2;Temp;Humidity;BMP_temperature;BMP_pressure;BME280_temperature;BME280_humidity;BME280_pressure;Samples;Min_cycle;Max_cycle;Signal;HPM_P1;HPM_P2
2022/10/24 00:00:45;;;;;;;4.78;0.80;;;;;;;14.50;100.00;100376.59;2064355;28;20038;-82
2022/10/24 00:01:47;;;;;;;4.13;0.90;;;;;;;14.58;100.00;100370.00;2064265;28;30529;-82
2022/10/24 00:02:48;;;;;;;6.32;0.90;;;;;;;14.59;100.00;100371.72;2079481;28;30367;-82
2022/10/24 00:03:50;;;;;;;3.42;0.85;;;;;;;14.67;100.00;100366.84;2072207;28;20047;-82
2022/10/24 00:04:52;;;;;;;3.85;0.68;;;;;;;14.73;100.00;100379.13;2071514;28;35189;-82
2022/10/24 00:05:54;;;;;;;4.45;1.27;;;;;;;14.73;100.00;100365.66;2079156;28;30744;-82
2022/10/24 00:06:56;;;;;;;4.32;1.00;;;;;;;14.71;100.00;100376.50;2072241;28;20047;-82
2022/10/24 00:07:58;;;;;;;5.35;1.00;;;;;;;14.71;100.00;100373.81;2063082;28;20982;-82
2022/10/24 00:09:00;;;;;;;4.20;0.93;;;;;;;14.71;100.00;100373.81;2063295;28;35974;-83
2022/10/24 00:10:03;;;;;;;2.63;0.93;;;;;;;14.66;100.00;100365.09;2075990;28;20043;-82
2022/10/24 00:11:22;;;;;;;6.47;1.00;;;;;;;14.62;100.00;100371.56;2080433;28;37272;-81
2022/10/24 00:12:25;;;;;;;3.83;0.70;;;;;;;14.64;100.00;100359.78;2080439;28;20038;-82
2022/10/24 00:13:27;;;;;;;6.10;0.80;;;;;;;14.66;100.00;100373.16;2080670;28;23610;-82
2022/10/24 00:14:29;;;;;;;3.50;0.88;;;;;;;14.60;100.00;100373.47;2080102;28;20161;-82
2022/10/24 00:15:31;;;;;;;3.90;0.90;;;;;;;14.58;100.00;100367.28;2072092;28;20042;-82
2022/10/24 00:16:36;;;;;;;4.32;0.90;;;;;;;14.56;100.00;100364.63;2063592;28;20113;-82
2022/10/24 00:17:38;;;;;;;7.93;0.90;;;;;;;14.55;100.00;100370.97;2063510;28;29491;-82
2022/10/24 00:18:41;;;;;;;4.18;1.13;;;;;;;14.47;100.00;100368.66;2064359;28;20133;-81
2022/10/24 00:19:43;;;;;;;6.35;1.00;;;;;;;14.48;100.00;100375.78;2062962;28;38851;-83
2022/10/24 00:20:44;;;;;;;6.15;1.10;;;;;;;14.45;100.00;100375.06;2063220;28;35694;-82
2022/10/24 00:21:46;;;;;;;7.45;1.10;;;;;;;14.40;100.00;100377.97;2072607;28;20132;-82
2022/10/24 00:22:48;;;;;;;4.90;1.15;;;;;;;14.38;100.00;100368.22;2071573;28;20880;-83
2022/10/24 00:23:50;;;;;;;3.03;0.80;;;;;;;14.35;100.00;100371.94;2071776;28;20100;-82
2022/10/24 00:24:53;;;;;;;3.83;1.08;;;;;;;14.36;100.00;100371.00;2070974;28;35980;-83
2022/10/24 00:25:54;;;;;;;4.93;1.02;;;;;;;14.33;100.00;100369.31;2072293;28;20098;-80
2022/10/24 00:26:56;;;;;;;3.90;0.80;;;;;;;14.28;100.00;100368.69;2079345;28;37375;-82
2022/10/24 00:27:58;;;;;;;6.32;0.82;;;;;;;14.28;100.00;100368.69;2080199;28;20912;-83
2022/10/24 00:29:01;;;;;;;5.32;0.85;;;;;;;14.21;100.00;100369.91;2072371;28;20043;-83
2022/10/24 00:30:05;;;;;;;7.90;0.70;;;;;;;14.22;100.00;100366.25;2080153;28;20049;-82
2022/10/24 00:31:13;;;;;;;3.78;0.68;;;;;;;14.22;100.00;100373.47;2088182;28;20855;-81
2022/10/24 00:32:15;;;;;;;10.90;1.20;;;;;;;14.21;100.00;100372.59;2071842;28;44004;-84
2022/10/24 00:33:17;;;;;;;5.28;1.13;;;;;;;14.16;100.00;100376.44;2062488;28;20169;-83
2022/10/24 00:34:19;;;;;;;4.85;0.70;;;;;;;14.18;100.00;100371.88;2055713;28;20055;-82
2022/10/24 00:35:21;;;;;;;5.00;1.08;;;;;;;14.19;100.00;100373.59;2063334;28;37432;-82
2022/10/24 00:36:23;;;;;;;3.72;1.05;;;;;;;14.14;100.00;100371.16;2079402;28;34949;-82
2022/10/24 00:37:25;;;;;;;5.15;1.08;;;;;;;14.07;100.00;100369.69;2071220;28;28522;-82
2022/10/24 00:38:27;;;;;;;2.92;0.93;;;;;;;14.05;100.00;100377.84;2062790;28;20829;-82
2022/10/24 00:39:29;;;;;;;4.30;0.98;;;;;;;14.04;100.00;100378.75;2072022;28;20816;-81
2022/10/24 00:40:30;;;;;;;7.63;1.33;;;;;;;14.04;100.00;100376.06;2081901;28;35431;-81
2022/10/24 00:41:37;;;;;;;6.80;1.23;;;;;;;14.12;100.00;100370.31;2079914;28;20042;-82
2022/10/24 00:42:39;;;;;;;4.95;1.20;;;;;;;14.16;100.00;100381.81;2071992;28;20906;-82
2022/10/24 00:43:41;;;;;;;6.03;1.30;;;;;;;14.12;100.00;100365.84;2064135;28;20920;-80
2022/10/24 00:44:46;;;;;;;3.88;1.00;;;;;;;14.19;100.00;100373.59;2063999;28;21050;-82
2022/10/24 00:46:01;;;;;;;4.22;1.15;;;;;;;14.21;100.00;100378.00;2063244;28;39299;-83
2022/10/24 00:47:19;;;;;;;8.38;1.33;;;;;;;14.26;100.00;100380.44;2065908;28;20050;-83
2022/10/24 00:48:32;;;;;;;6.07;0.90;;;;;;;14.28;100.00;100392.91;2074302;28;20069;-82
2022/10/24 00:49:43;;;;;;;6.90;1.30;;;;;;;14.31;100.00;100394.56;2079692;28;20046;-81
2022/10/24 00:50:47;;;;;;;3.67;0.98;;;;;;;14.29;100.00;100386.56;2071538;28;20038;-81
2022/10/24 00:51:55;;;;;;;6.43;1.20;;;;;;;14.33;100.00;100392.69;2063631;28;39412;-82
2022/10/24 00:52:57;;;;;;;6.13;1.77;;;;;;;14.33;100.00;100390.84;2072505;28;20691;-83
2022/10/24 00:54:05;;;;;;;2.80;1.17;;;;;;;14.37;100.00;100396.97;2079654;28;20875;-81
2022/10/24 00:55:09;;;;;;;4.35;1.00;;;;;;;14.39;100.00;100388.81;2073103;28;20047;-82
2022/10/24 00:56:15;;;;;;;6.70;1.33;;;;;;;14.39;100.00;100387.03;2072534;28;20045;-82
2022/10/24 00:59:08;;;;;;;4.40;1.10;;;;;;;14.44;100.00;100387.66;2053398;28;20047;-82
2022/10/24 01:00:15;;;;;;;5.47;0.98;;;;;;;14.45;100.00;100383.16;2055644;28;30303;-82
2022/10/24 01:01:17;;;;;;;6.35;1.13;;;;;;;14.44;100.00;100379.56;2055224;28;33174;-83
2022/10/24 01:02:20;;;;;;;2.10;1.10;;;;;;;14.45;100.00;100384.00;2055241;28;34970;-83
2022/10/24 01:03:22;;;;;;;4.95;1.20;;;;;;;14.46;100.00;100377.69;2055084;28;30431;-83
2022/10/24 01:04:24;;;;;;;8.60;1.20;;;;;;;14.47;100.00;100378.56;2055587;28;35615;-83
2022/10/24 01:05:35;;;;;;;4.50;1.13;;;;;;;14.51;100.00;100369.38;2055116;28;32060;-83
2022/10/24 01:06:48;;;;;;;4.20;1.02;;;;;;;14.48;100.00;100362.34;2056447;28;34017;-83
2022/10/24 01:08:24;;;;;;;6.93;1.00;;;;;;;14.50;100.00;100354.19;2060216;28;37057;-82
2022/10/24 01:10:01;;;;;;;3.67;0.73;;;;;;;14.53;100.00;100367.47;2055415;28;26366;-83
2022/10/24 01:11:41;;;;;;;7.20;1.27;;;;;;;14.57;100.00;100368.19;2054463;28;20170;-82
2022/10/24 01:13:21;;;;;;;3.40;1.20;;;;;;;14.52;100.00;100363.91;2055678;28;37751;-83
2022/10/24 01:15:20;;;;;;;3.00;1.00;;;;;;;14.55;100.00;100353.94;2055662;28;35051;-83
2022/10/24 01:17:16;;;;;;;3.63;1.08;;;;;;;14.52;100.00;100355.84;2063429;28;32151;-83
2022/10/24 01:18:36;;;;;;;5.05;1.38;;;;;;;14.49;100.00;100349.72;2055016;28;30162;-83
2022/10/24 01:20:25;;;;;;;5.50;1.40;;;;;;;14.48;100.00;100356.94;2055839;28;32974;-83
2022/10/24 01:21:42;;;;;;;4.57;1.20;;;;;;;14.43;100.00;100352.72;2056487;28;20039;-83
2022/10/24 01:23:11;;;;;;;4.03;0.95;;;;;;;14.41;100.00;100347.41;2062267;28;41132;-84
2022/10/24 01:24:56;;;;;;;5.53;1.60;;;;;;;14.35;100.00;100342.31;2062372;28;31501;-83
2022/10/24 01:26:25;;;;;;;3.88;1.10;;;;;;;14.32;100.00;100343.34;2055677;28;30883;-83
2022/10/24 01:28:04;;;;;;;7.93;1.17;;;;;;;14.26;100.00;100345.44;2053972;28;34674;-83
2022/10/24 01:29:17;;;;;;;3.38;1.38;;;;;;;14.19;100.00;100344.00;2056267;28;33038;-83
2022/10/24 01:30:19;;;;;;;5.70;0.98;;;;;;;14.15;100.00;100339.72;2054776;28;34674;-83
2022/10/24 01:31:43;;;;;;;4.45;1.15;;;;;;;14.15;100.00;100337.00;2055580;28;35568;-83
2022/10/24 01:32:58;;;;;;;4.10;1.27;;;;;;;14.11;100.00;100339.84;2063043;28;35725;-83
2022/10/24 01:34:14;;;;;;;4.05;1.10;;;;;;;14.10;100.00;100338.13;2055520;28;20055;-83
2022/10/24 01:36:02;;;;;;;4.30;1.10;;;;;;;14.08;100.00;100331.03;2058453;28;33234;-83
2022/10/24 01:37:50;;;;;;;3.85;0.90;;;;;;;13.97;100.00;100323.47;2049683;28;37052;-83
2022/10/24 01:39:01;;;;;;;4.68;1.13;;;;;;;14.01;100.00;100325.06;2055759;28;37338;-82
2022/10/24 01:40:34;;;;;;;2.15;1.10;;;;;;;14.03;100.00;100327.69;2063019;28;25381;-83
2022/10/24 01:41:40;;;;;;;4.75;1.08;;;;;;;14.04;100.00;100326.75;2055696;28;39390;-83
2022/10/24 01:42:45;;;;;;;2.97;1.20;;;;;;;14.03;100.00;100328.59;2059986;28;20043;-83
2022/10/24 01:44:06;;;;;;;4.22;1.40;;;;;;;14.07;100.00;100329.31;2054686;28;38974;-83
2022/10/24 01:45:14;;;;;;;3.08;1.05;;;;;;;14.07;100.00;100322.09;2058269;28;41157;-82
2022/10/24 01:46:23;;;;;;;6.25;1.42;;;;;;;14.09;100.00;100328.28;2055028;28;35903;-83
2022/10/24 01:47:33;;;;;;;4.85;1.58;;;;;;;14.14;100.00;100322.69;2055275;28;35217;-83
2022/10/24 01:48:45;;;;;;;5.45;1.30;;;;;;;14.13;100.00;100326.31;2063903;28;20046;-83
2022/10/24 01:50:04;;;;;;;7.40;1.73;;;;;;;14.12;100.00;100322.75;2055050;28;39036;-83
2022/10/24 01:51:10;;;;;;;5.90;1.60;;;;;;;14.13;100.00;100324.50;2059309;28;20133;-83
2022/10/24 01:52:16;;;;;;;5.65;1.50;;;;;;;14.13;100.00;100321.78;2054820;28;34222;-83
2022/10/24 01:53:18;;;;;;;4.65;1.40;;;;;;;14.16;100.00;100314.50;2056448;28;33041;-83
2022/10/24 01:54:21;;;;;;;5.75;1.25;;;;;;;14.12;100.00;100317.38;2061901;28;37210;-83
2022/10/24 01:55:23;;;;;;;6.53;1.40;;;;;;;14.15;100.00;100312.78;2054763;28;36643;-83
2022/10/24 01:56:25;;;;;;;7.03;1.75;;;;;;;14.13;100.00;100311.03;2054833;28;32993;-83
2022/10/24 01:57:29;;;;;;;5.15;1.25;;;;;;;14.16;100.00;100325.28;2062806;28;32246;-83
2022/10/24 01:58:31;;;;;;;5.13;1.33;;;;;;;14.19;100.00;100320.63;2055165;28;41521;-83
2022/10/24 01:59:33;;;;;;;2.97;1.10;;;;;;;14.20;100.00;100324.22;2056018;28;20254;-83
2022/10/24 02:00:35;;;;;;;3.72;1.00;;;;;;;14.18;100.00;100320.72;2057416;28;39203;-84
2022/10/24 02:01:38;;;;;;;3.70;1.10;;;;;;;14.20;100.00;100321.53;2071654;28;20184;-83
2022/10/24 02:02:48;;;;;;;4.82;1.10;;;;;;;14.18;100.00;100318.91;2070392;28;27316;-83
2022/10/24 02:03:58;;;;;;;2.70;1.10;;;;;;;14.19;100.00;100317.06;2070906;28;30500;-84
2022/10/24 02:05:15;;;;;;;5.60;1.40;;;;;;;14.19;100.00;100314.38;2063528;28;20043;-83
2022/10/24 02:06:27;;;;;;;7.10;1.33;;;;;;;14.18;100.00;100318.03;2062696;28;38581;-83
2022/10/24 02:07:32;;;;;;;2.65;1.17;;;;;;;14.20;100.00;100316.13;2055762;28;37768;-83
2022/10/24 02:08:44;;;;;;;5.25;1.42;;;;;;;14.21;100.00;100307.09;2063423;28;20039;-83
2022/10/24 02:09:52;;;;;;;4.18;1.30;;;;;;;14.23;100.00;100305.19;2061044;28;32986;-84
2022/10/24 02:10:59;;;;;;;4.78;1.17;;;;;;;14.22;100.00;100307.03;2055263;28;38975;-83
2022/10/24 02:12:03;;;;;;;3.22;1.10;;;;;;;14.26;100.00;100310.44;2063338;28;30115;-83
2022/10/24 02:13:13;;;;;;;3.00;1.25;;;;;;;14.27;100.00;100306.81;2061050;28;36375;-84
2022/10/24 02:14:23;;;;;;;5.80;1.35;;;;;;;14.26;100.00;100307.75;2062302;28;32580;-83
2022/10/24 02:15:30;;;;;;;6.22;1.60;;;;;;;14.24;100.00;100298.88;2054634;28;38463;-83
2022/10/24 02:16:34;;;;;;;3.92;1.00;;;;;;;14.26;100.00;100299.66;2055184;28;32285;-83
2022/10/24 02:17:36;;;;;;;5.28;1.10;;;;;;;14.27;100.00;100299.59;2056538;28;34799;-85
2022/10/24 02:18:39;;;;;;;5.97;1.13;;;;;;;14.24;100.00;100294.34;2063064;28;30543;-83
2022/10/24 02:19:43;;;;;;;5.40;1.08;;;;;;;14.26;100.00;100302.38;2054656;28;37121;-83
2022/10/24 02:21:16;;;;;;;4.07;1.33;;;;;;;14.26;100.00;100299.66;2054193;28;39355;-84
2022/10/24 02:22:38;;;;;;;3.88;1.38;;;;;;;14.26;100.00;100295.16;2057200;28;34919;-84
2022/10/24 02:23:58;;;;;;;6.38;1.25;;;;;;;14.26;100.00;100283.50;2056642;28;30859;-84
2022/10/24 02:25:04;;;;;;;4.55;1.30;;;;;;;14.26;100.00;100284.38;2054863;28;33383;-84
2022/10/24 02:26:13;;;;;;;5.20;1.23;;;;;;;14.24;100.00;100282.72;2055355;28;20047;-84
2022/10/24 02:27:22;;;;;;;3.88;1.00;;;;;;;14.23;100.00;100279.16;2047363;28;37642;-83
2022/10/24 02:28:32;;;;;;;3.30;1.25;;;;;;;14.24;100.00;100280.03;2055768;28;40199;-83
2022/10/24 02:29:51;;;;;;;3.22;0.90;;;;;;;14.27;100.00;100279.88;2060104;28;39192;-84
2022/10/24 02:31:08;;;;;;;3.60;1.02;;;;;;;14.28;100.00;100279.81;2055417;28;20055;-84
2022/10/24 02:32:20;;;;;;;9.10;1.00;;;;;;;14.27;100.00;100275.38;2047764;28;39976;-83
2022/10/24 02:33:25;;;;;;;5.05;0.95;;;;;;;14.28;100.00;100273.53;2050051;28;20040;-84
2022/10/24 02:34:33;;;;;;;3.40;1.02;;;;;;;14.25;100.00;100271.88;2054805;28;42442;-84
2022/10/24 02:35:39;;;;;;;5.60;1.10;;;;;;;14.25;100.00;100276.41;2062636;28;39345;-83
2022/10/24 02:36:43;;;;;;;3.60;0.88;;;;;;;14.23;100.00;100278.25;2055959;28;36530;-84
2022/10/24 02:37:53;;;;;;;2.75;0.98;;;;;;;14.22;100.00;100271.16;2056382;28;40514;-84
2022/10/24 02:38:56;;;;;;;6.85;1.10;;;;;;;14.20;100.00;100265.84;2056380;28;39321;-84
2022/10/24 02:40:01;;;;;;;8.45;1.48;;;;;;;14.19;100.00;100264.09;2055611;28;40129;-84
2022/10/24 02:41:11;;;;;;;4.72;1.02;;;;;;;14.15;100.00;100267.00;2057085;28;30855;-84
2022/10/24 02:42:17;;;;;;;4.70;1.05;;;;;;;14.13;100.00;100262.56;2064287;28;35684;-85
2022/10/24 02:43:22;;;;;;;6.85;1.30;;;;;;;14.08;100.00;100261.91;2055954;28;33768;-84
2022/10/24 02:44:28;;;;;;;5.72;1.27;;;;;;;14.05;100.00;100263.88;2048472;28;31146;-83
2022/10/24 02:45:31;;;;;;;4.50;1.05;;;;;;;14.02;100.00;100258.66;2056453;28;29464;-83
2022/10/24 02:46:34;;;;;;;8.02;1.42;;;;;;;13.98;100.00;100257.94;2057248;28;20101;-84
2022/10/24 02:47:39;;;;;;;6.15;1.35;;;;;;;14.07;100.00;100260.19;2057152;28;34139;-84
2022/10/24 02:48:48;;;;;;;6.93;1.50;;;;;;;14.08;100.00;100253.84;2063636;28;39488;-84
2022/10/24 02:49:49;;;;;;;4.68;1.40;;;;;;;14.06;100.00;100254.88;2056015;28;29361;-84
2022/10/24 02:50:51;;;;;;;3.40;1.25;;;;;;;14.04;100.00;100246.88;2056975;28;30979;-84
2022/10/24 02:51:54;;;;;;;7.38;1.25;;;;;;;14.04;100.00;100249.56;2063454;28;37359;-84
2022/10/24 02:52:55;;;;;;;7.30;1.88;;;;;;;14.05;100.00;100248.63;2056733;28;20042;-84
2022/10/24 02:53:59;;;;;;;6.78;1.50;;;;;;;14.07;100.00;100244.03;2063282;28;33598;-84
2022/10/24 02:55:01;;;;;;;6.40;1.38;;;;;;;14.07;100.00;100240.47;2055659;28;36884;-84
2022/10/24 02:56:03;;;;;;;3.65;1.25;;;;;;;14.01;100.00;100241.63;2056556;28;28536;-84
2022/10/24 02:57:07;;;;;;;3.60;1.30;;;;;;;13.98;100.00;100241.78;2063598;28;34565;-84
2022/10/24 02:58:10;;;;;;;5.20;1.60;;;;;;;13.99;100.00;100250.72;2056971;28;20043;-84
2022/10/24 02:59:12;;;;;;;6.38;1.40;;;;;;;13.95;100.00;100252.69;2057185;28;20916;-84
2022/10/24 03:00:14;;;;;;;5.93;1.15;;;;;;;13.93;100.00;100246.53;2056813;28;31559;-85
2022/10/24 03:01:16;;;;;;;3.78;1.25;;;;;;;13.92;100.00;100250.16;2056709;28;36016;-84
2022/10/24 03:02:17;;;;;;;4.65;1.05;;;;;;;13.91;100.00;100238.53;2056721;28;33875;-84
2022/10/24 03:03:21;;;;;;;4.30;1.63;;;;;;;13.91;100.00;100241.22;2057500;28;20036;-84
2022/10/24 03:04:22;;;;;;;5.75;1.40;;;;;;;13.89;100.00;100226.97;2056426;28;34607;-84
2022/10/24 03:05:24;;;;;;;5.90;1.15;;;;;;;13.90;100.00;100230.50;2055619;28;34506;-84
2022/10/24 03:06:26;;;;;;;4.68;1.30;;;;;;;13.86;100.00;100231.63;2056900;28;31870;-84
2022/10/24 03:07:30;;;;;;;5.75;1.23;;;;;;;13.86;100.00;100234.31;2056543;28;33120;-83
2022/10/24 03:08:36;;;;;;;4.05;1.30;;;;;;;13.87;100.00;100219.88;2064848;28;20090;-84
2022/10/24 03:09:38;;;;;;;4.93;1.52;;;;;;;13.85;100.00;100229.84;2055874;28;30868;-84
2022/10/24 03:10:40;;;;;;;5.18;1.33;;;;;;;13.82;100.00;100230.00;2055944;28;40815;-84
2022/10/24 03:11:42;;;;;;;3.28;1.13;;;;;;;13.77;100.00;100238.31;2056617;28;30752;-85
2022/10/24 03:12:46;;;;;;;5.45;1.33;;;;;;;13.73;100.00;100232.19;2057006;28;20035;-85
2022/10/24 03:13:48;;;;;;;6.40;1.48;;;;;;;13.67;100.00;100235.16;2055811;28;37529;-85
2022/10/24 03:14:49;;;;;;;6.00;1.25;;;;;;;13.65;100.00;100238.88;2056825;28;32036;-84
2022/10/24 03:15:51;;;;;;;6.10;1.38;;;;;;;13.61;100.00;100231.91;2056646;28;34741;-84
2022/10/24 03:16:53;;;;;;;8.25;1.88;;;;;;;13.56;100.00;100242.88;2056550;28;32942;-84
2022/10/24 03:17:54;;;;;;;6.30;1.35;;;;;;;13.55;100.00;100239.31;2056301;28;34336;-85
2022/10/24 03:18:57;;;;;;;5.72;1.40;;;;;;;13.53;100.00;100240.31;2056221;28;20043;-84
2022/10/24 03:19:58;;;;;;;4.38;1.38;;;;;;;13.49;100.00;100244.09;2056336;28;34247;-83
2022/10/24 03:21:00;;;;;;;7.30;1.63;;;;;;;13.43;100.00;100229.13;2063618;28;36829;-83
2022/10/24 03:22:02;;;;;;;4.35;1.45;;;;;;;13.41;100.00;100232.84;2063762;28;38171;-84
2022/10/24 03:23:04;;;;;;;6.70;1.40;;;;;;;13.40;100.00;100233.78;2056618;28;30283;-84
2022/10/24 03:24:08;;;;;;;4.07;1.40;;;;;;;13.36;100.00;100233.91;2064486;28;20054;-84
2022/10/24 03:25:10;;;;;;;6.05;1.60;;;;;;;13.30;100.00;100231.47;2063392;28;37925;-83
2022/10/24 03:26:12;;;;;;;8.07;1.67;;;;;;;13.28;100.00;100233.38;2049036;28;20122;-83
2022/10/24 03:27:14;;;;;;;4.57;1.20;;;;;;;13.25;100.00;100232.63;2048969;28;25420;-83
2022/10/24 03:28:16;;;;;;;6.05;1.90;;;;;;;13.21;100.00;100223.84;2048480;28;36373;-83
2022/10/24 03:29:18;;;;;;;6.38;1.77;;;;;;;13.20;100.00;100232.81;2048378;28;34196;-83
2022/10/24 03:30:20;;;;;;;5.95;1.58;;;;;;;13.18;100.00;100219.44;2047918;28;38257;-83
2022/10/24 03:31:21;;;;;;;6.43;1.83;;;;;;;13.15;100.00;100222.31;2049069;28;20044;-83
2022/10/24 03:32:23;;;;;;;6.63;1.60;;;;;;;13.13;100.00;100220.59;2048068;28;34974;-83
2022/10/24 03:33:30;;;;;;;5.13;1.83;;;;;;;13.10;100.00;100221.63;2049107;28;20900;-83
2022/10/24 03:34:32;;;;;;;9.95;1.98;;;;;;;13.09;100.00;100217.19;2063450;28;38330;-83
2022/10/24 03:35:34;;;;;;;5.70;1.90;;;;;;;13.16;100.00;100217.78;2063233;28;31438;-83
2022/10/24 03:36:36;;;;;;;4.72;1.40;;;;;;;13.11;100.00;100217.13;2049309;28;22669;-82
2022/10/24 03:37:38;;;;;;;6.82;1.65;;;;;;;13.09;100.00;100224.38;2063786;28;37741;-83
2022/10/24 03:38:39;;;;;;;7.70;1.77;;;;;;;13.08;100.00;100219.94;2055332;28;38164;-82
2022/10/24 03:39:41;;;;;;;11.80;2.13;;;;;;;13.06;100.00;100224.50;2047782;28;32167;-83
2022/10/24 03:40:43;;;;;;;6.57;2.08;;;;;;;13.04;100.00;100218.34;2051632;28;32904;-82
2022/10/24 03:41:49;;;;;;;7.22;1.80;;;;;;;13.02;100.00;100228.28;2064475;28;20054;-83
2022/10/24 03:42:51;;;;;;;9.68;1.70;;;;;;;13.00;100.00;100222.97;2063000;28;36081;-82
2022/10/24 03:43:53;;;;;;;5.40;2.05;;;;;;;12.95;100.00;100220.47;2056509;28;39374;-84
2022/10/24 03:44:54;;;;;;;6.57;1.50;;;;;;;12.94;100.00;100224.13;2063707;28;24120;-82
2022/10/24 03:45:56;;;;;;;8.60;1.67;;;;;;;12.91;100.00;100221.56;2063628;28;37879;-82
2022/10/24 03:46:58;;;;;;;5.22;1.80;;;;;;;12.90;100.00;100219.84;2055765;28;35307;-83
2022/10/24 03:47:59;;;;;;;8.10;2.05;;;;;;;12.88;100.00;100221.69;2056354;28;37134;-84
2022/10/24 03:49:01;;;;;;;5.97;1.80;;;;;;;12.93;100.00;100226.88;2056749;28;32332;-82
2022/10/24 03:50:08;;;;;;;7.55;1.63;;;;;;;12.89;100.00;100223.44;2056393;28;20083;-82
2022/10/24 03:51:10;;;;;;;9.13;1.77;;;;;;;12.90;100.00;100227.91;2055690;28;38550;-82
2022/10/24 03:52:12;;;;;;;7.50;1.90;;;;;;;12.90;100.00;100217.16;2056783;28;20118;-82
2022/10/24 03:53:14;;;;;;;6.65;2.00;;;;;;;12.91;100.00;100220.69;2056495;28;20043;-83
2022/10/24 03:54:16;;;;;;;9.27;1.60;;;;;;;12.90;100.00;100225.22;2063672;28;30023;-83
2022/10/24 03:55:17;;;;;;;5.10;1.90;;;;;;;12.92;100.00;100219.75;2063373;28;37530;-82
2022/10/24 03:56:19;;;;;;;7.32;1.85;;;;;;;12.86;100.00;100220.88;2064088;28;20050;-83
2022/10/24 03:57:21;;;;;;;6.75;1.77;;;;;;;12.84;100.00;100222.78;2063589;28;31986;-83
2022/10/24 03:58:23;;;;;;;4.00;1.52;;;;;;;12.87;100.00;100222.66;2056247;28;31228;-82
2022/10/24 03:59:25;;;;;;;5.60;1.98;;;;;;;12.84;100.00;100225.47;2055621;28;30414;-82
2022/10/24 04:00:27;;;;;;;10.70;1.90;;;;;;;12.86;100.00;100223.56;2056946;28;20840;-82
2022/10/24 04:01:29;;;;;;;8.43;1.85;;;;;;;12.88;100.00;100224.38;2054976;28;36073;-82
2022/10/24 04:02:31;;;;;;;6.93;1.90;;;;;;;12.85;100.00;100224.53;2056221;28;37837;-82
2022/10/24 04:03:33;;;;;;;4.60;1.63;;;;;;;12.87;100.00;100214.59;2055960;28;39431;-82
2022/10/24 04:04:34;;;;;;;6.40;1.77;;;;;;;12.87;100.00;100219.09;2055882;28;34560;-83
2022/10/24 04:05:36;;;;;;;7.20;1.88;;;;;;;12.85;100.00;100224.53;2056177;28;31812;-83
2022/10/24 04:06:43;;;;;;;4.82;1.50;;;;;;;12.85;100.00;100224.53;2057007;28;20889;-82
2022/10/24 04:07:44;;;;;;;8.20;1.92;;;;;;;12.84;100.00;100225.47;2055663;28;35979;-83
2022/10/24 04:08:49;;;;;;;7.25;2.03;;;;;;;12.85;100.00;100216.47;2056276;28;34454;-80
2022/10/24 04:09:50;;;;;;;8.80;2.00;;;;;;;12.87;100.00;100217.28;2055668;28;28361;-82
2022/10/24 04:10:52;;;;;;;5.05;1.80;;;;;;;12.83;100.00;100215.69;2056689;28;37099;-81
2022/10/24 04:11:54;;;;;;;8.82;2.10;;;;;;;12.80;100.00;100213.13;2056029;28;31823;-83
2022/10/24 04:12:59;;;;;;;6.72;1.85;;;;;;;12.82;100.00;100216.59;2056074;28;26365;-83
2022/10/24 04:14:00;;;;;;;4.63;2.13;;;;;;;12.84;100.00;100221.91;2055622;28;39345;-82
2022/10/24 04:15:04;;;;;;;11.98;2.03;;;;;;;12.83;100.00;100223.72;2056809;28;20043;-83
2022/10/24 04:16:10;;;;;;;5.78;1.98;;;;;;;12.80;100.00;100213.13;2063082;28;33650;-83
2022/10/24 04:17:11;;;;;;;6.65;2.00;;;;;;;12.82;100.00;100216.59;2062734;28;36573;-83
2022/10/24 04:18:13;;;;;;;8.68;1.80;;;;;;;12.83;100.00;100214.78;2056094;28;20924;-83
2022/10/24 04:19:18;;;;;;;3.97;1.48;;;;;;;12.82;100.00;100216.59;2055923;28;33688;-82
2022/10/24 04:20:21;;;;;;;8.65;2.08;;;;;;;12.83;100.00;100210.31;2055330;28;38184;-83
2022/10/24 04:21:23;;;;;;;7.57;1.73;;;;;;;12.83;100.00;100223.72;2055700;28;29375;-82
2022/10/24 04:22:25;;;;;;;4.53;1.80;;;;;;;12.81;100.00;100222.91;2055811;28;33654;-83
2022/10/24 04:23:27;;;;;;;9.35;2.00;;;;;;;12.79;100.00;100223.00;2056162;28;35233;-81
2022/10/24 04:24:28;;;;;;;5.35;1.50;;;;;;;12.77;100.00;100224.84;2055831;28;36816;-83
2022/10/24 04:25:30;;;;;;;6.72;1.60;;;;;;;12.75;100.00;100225.88;2056013;28;40157;-83
2022/10/24 04:26:32;;;;;;;5.40;1.77;;;;;;;12.80;100.00;100221.19;2056100;28;31716;-83
2022/10/24 04:27:39;;;;;;;5.18;1.77;;;;;;;12.80;100.00;100221.19;2056814;28;20162;-83
2022/10/24 04:28:41;;;;;;;7.60;2.00;;;;;;;12.77;100.00;100229.34;2055975;28;35545;-83
2022/10/24 04:29:42;;;;;;;5.32;1.90;;;;;;;12.73;100.00;100222.38;2063641;28;31084;-83
2022/10/24 04:30:44;;;;;;;6.68;1.90;;;;;;;12.76;100.00;100219.56;2062631;28;35700;-83
2022/10/24 04:31:46;;;;;;;8.93;1.98;;;;;;;12.71;100.00;100226.94;2048073;28;31716;-83
2022/10/24 04:32:48;;;;;;;5.63;1.40;;;;;;;12.75;100.00;100225.88;2047821;28;36597;-82
2022/10/24 04:33:49;;;;;;;10.35;1.70;;;;;;;12.77;100.00;100223.97;2048674;28;26650;-83
2022/10/24 04:34:51;;;;;;;13.90;1.60;;;;;;;12.77;100.00;100226.66;2048209;28;26818;-83
2022/10/24 04:35:55;;;;;;;6.85;1.70;;;;;;;12.80;100.00;100224.72;2047821;28;34721;-83
2022/10/24 04:36:58;;;;;;;7.03;1.42;;;;;;;12.80;100.00;100229.22;2047825;28;20182;-83
2022/10/24 04:37:59;;;;;;;8.02;1.67;;;;;;;12.76;100.00;100222.25;2047396;28;34410;-83
2022/10/24 04:39:04;;;;;;;5.40;1.90;;;;;;;12.79;100.00;100223.00;2048054;28;32841;-82
2022/10/24 04:40:06;;;;;;;5.13;1.60;;;;;;;12.78;100.00;100228.44;2048251;28;31125;-82
2022/10/24 04:41:08;;;;;;;6.97;1.65;;;;;;;12.81;100.00;100222.91;2063327;28;32721;-82
2022/10/24 04:42:11;;;;;;;7.30;1.77;;;;;;;12.80;100.00;100219.34;2062561;28;33118;-83
2022/10/24 04:43:13;;;;;;;8.65;1.90;;;;;;;12.77;100.00;100229.34;2048365;28;20142;-83
2022/10/24 04:44:15;;;;;;;7.32;1.55;;;;;;;12.76;100.00;100223.13;2047697;28;36191;-83
2022/10/24 04:45:17;;;;;;;4.80;1.65;;;;;;;12.78;100.00;100225.75;2048070;28;32149;-83
2022/10/24 04:46:18;;;;;;;6.88;1.90;;;;;;;12.79;100.00;100227.47;2047536;28;32447;-83
2022/10/24 04:47:23;;;;;;;5.03;1.50;;;;;;;12.77;100.00;100223.97;2047595;28;37298;-83
2022/10/24 04:48:24;;;;;;;5.10;1.50;;;;;;;12.81;100.00;100225.59;2048180;28;23699;-83
2022/10/24 04:49:26;;;;;;;4.38;1.33;;;;;;;12.82;100.00;100221.13;2047697;28;39123;-83
2022/10/24 04:50:31;;;;;;;6.88;1.60;;;;;;;12.86;100.00;100214.66;2048756;28;20028;-83
2022/10/24 04:51:32;;;;;;;4.93;1.48;;;;;;;12.87;100.00;100219.97;2047669;28;37009;-83
2022/10/24 04:52:34;;;;;;;6.45;1.40;;;;;;;12.89;100.00;100219.91;2047679;28;34698;-83
2022/10/24 04:53:36;;;;;;;6.18;1.58;;;;;;;12.89;100.00;100212.69;2053061;28;39211;-83
2022/10/24 04:54:38;;;;;;;6.80;1.42;;;;;;;12.93;100.00;100214.31;2055201;28;38167;-83
2022/10/24 04:55:42;;;;;;;8.55;1.80;;;;;;;12.91;100.00;100213.50;2055924;28;34047;-84
2022/10/24 04:56:44;;;;;;;4.10;1.40;;;;;;;12.95;100.00;100219.63;2055811;28;35480;-84
2022/10/24 04:57:45;;;;;;;8.32;1.52;;;;;;;12.95;100.00;100223.16;2055203;28;37483;-82
2022/10/24 04:58:47;;;;;;;7.10;1.50;;;;;;;13.00;100.00;100214.91;2055212;28;40151;-84
2022/10/24 04:59:49;;;;;;;4.90;1.63;;;;;;;13.03;100.00;100216.56;2062672;28;32192;-84
2022/10/24 05:00:55;;;;;;;5.30;1.30;;;;;;;13.04;100.00;100226.41;2063426;28;21066;-84
2022/10/24 05:01:57;;;;;;;3.92;1.30;;;;;;;13.05;100.00;100222.78;2055314;28;38413;-84
2022/10/24 05:02:59;;;;;;;3.70;1.42;;;;;;;13.05;100.00;100210.22;2055691;28;37510;-84
2022/10/24 05:04:01;;;;;;;5.97;1.50;;;;;;;13.06;100.00;100220.00;2055659;28;31114;-83
2022/10/24 05:05:07;;;;;;;7.22;1.40;;;;;;;13.10;100.00;100213.56;2056554;28;20101;-84
2022/10/24 05:06:09;;;;;;;7.85;1.67;;;;;;;13.08;100.00;100218.16;2055928;28;30736;-85
2022/10/24 05:07:11;;;;;;;6.03;1.48;;;;;;;13.09;100.00;100203.75;2055438;28;40102;-85